Time;durP1;ratioP1;P1;durP2;ratioP2;P2;SDS_P1;SDS_P2;PMS_P1;PMS_P2;Temp;Humidity;BMP_temperature;BMP_pressure;BME280_temperature;BME280_humidity;BME280_pressure;Samples;Min_cycle;Max_cycle;Signal;HPM_P1;HPM_P2
2022/12/21 13:46:24;;;;;;;26.45;13.90;;;8.80;99.90;;;;;;5107755;27;20315;-61
2022/12/21 13:49:06;;;;;;;26.50;13.32;;;8.80;99.90;;;;;;5100087;28;20140;-60
2022/12/21 13:51:43;;;;;;;30.58;13.70;;;8.80;99.90;;;;;;5105200;28;20035;-61
2022/12/21 13:54:35;;;;;;;29.42;13.60;;;8.90;99.90;;;;;;5091222;28;20537;-60
2022/12/21 13:57:19;;;;;;;25.95;13.20;;;9.00;99.90;;;;;;5084359;28;20066;-60
2022/12/21 14:00:09;;;;;;;28.25;13.88;;;9.10;99.90;;;;;;5092922;28;20035;-60
2022/12/21 14:03:02;;;;;;;28.13;12.82;;;9.20;99.90;;;;;;5105904;28;20065;-60
2022/12/21 14:05:35;;;;;;;24.15;12.45;;;9.30;99.90;;;;;;5107024;28;20036;-60
2022/12/21 14:08:26;;;;;;;25.65;12.52;;;9.40;99.90;;;;;;5106446;28;20471;-60
2022/12/21 14:11:15;;;;;;;30.30;13.20;;;9.40;99.90;;;;;;5106871;28;20053;-61
2022/12/21 14:14:00;;;;;;;26.75;12.80;;;9.40;99.90;;;;;;5107238;28;20023;-61
2022/12/21 14:16:31;;;;;;;26.80;11.77;;;9.40;99.90;;;;;;5095232;28;20023;-62
2022/12/21 14:18:59;;;;;;;25.30;12.30;;;9.40;99.90;;;;;;5106661;28;20391;-60
2022/12/21 14:21:27;;;;;;;25.92;12.60;;;9.40;99.90;;;;;;5107633;28;20023;-61
2022/12/21 14:23:57;;;;;;;22.45;11.18;;;9.40;99.90;;;;;;5107532;28;20020;-61
2022/12/21 14:26:46;;;;;;;20.67;11.65;;;9.40;99.90;;;;;;5107058;28;20024;-60
2022/12/21 14:29:32;;;;;;;22.00;11.52;;;9.50;99.90;;;;;;5107866;28;20073;-62
2022/12/21 14:32:16;;;;;;;24.17;11.90;;;9.40;99.90;;;;;;5108735;28;20098;-61
2022/12/21 14:34:56;;;;;;;23.25;11.85;;;9.50;99.90;;;;;;5086246;28;20059;-61
2022/12/21 14:37:30;;;;;;;19.83;10.35;;;9.40;99.90;;;;;;5087668;28;20020;-61
2022/12/21 14:40:14;;;;;;;22.17;10.80;;;9.40;99.90;;;;;;5086554;28;20016;-62
2022/12/21 14:42:40;;;;;;;21.50;11.27;;;9.40;99.90;;;;;;5088703;28;20031;-61
2022/12/21 14:45:11;;;;;;;20.45;10.32;;;9.30;99.90;;;;;;5086132;28;20047;-61
2022/12/21 14:47:38;;;;;;;20.10;10.85;;;9.30;99.90;;;;;;5086514;28;20020;-61
2022/12/21 14:50:19;;;;;;;20.10;10.07;;;9.30;99.90;;;;;;5086969;28;20012;-61
2022/12/21 14:52:58;;;;;;;19.77;10.15;;;9.20;99.90;;;;;;5087505;28;20028;-61
2022/12/21 14:55:30;;;;;;;23.42;11.02;;;9.20;99.90;;;;;;5085552;28;20499;-62
2022/12/21 14:57:55;;;;;;;22.70;10.23;;;9.10;99.90;;;;;;5073463;28;20384;-62
2022/12/21 15:00:28;;;;;;;21.13;8.90;;;9.10;99.90;;;;;;5071539;28;20465;-61
2022/12/21 15:03:20;;;;;;;20.55;10.02;;;9.10;99.90;;;;;;5074473;28;20024;-61
2022/12/21 15:06:01;;;;;;;;;;;9.00;99.90;;;;;;5073523;28;20123;-62
2022/12/21 15:08:43;;;;;;;19.60;9.88;;;8.90;99.90;;;;;;5073033;28;19904;-61
2022/12/21 15:11:19;;;;;;;21.40;9.27;;;8.90;99.90;;;;;;5073579;28;20024;-61
2022/12/21 15:13:57;;;;;;;20.02;8.73;;;8.90;99.90;;;;;;5073461;28;20036;-60
2022/12/21 15:16:29;;;;;;;18.90;9.45;;;8.90;99.90;;;;;;5089022;28;20076;-61
2022/12/21 15:19:19;;;;;;;21.73;9.02;;;8.90;99.90;;;;;;5093460;28;20032;-63
2022/12/21 15:22:09;;;;;;;19.13;8.73;;;9.00;99.90;;;;;;5092418;28;20067;-62
2022/12/21 15:24:35;;;;;;;18.65;8.45;;;9.00;99.90;;;;;;5070915;28;20040;-62
2022/12/21 15:27:25;;;;;;;17.45;8.48;;;9.00;99.90;;;;;;5072686;28;20032;-61
2022/12/21 15:29:56;;;;;;;19.35;8.23;;;9.10;99.90;;;;;;5062393;28;20032;-62
2022/12/21 15:32:41;;;;;;;14.07;8.00;;;9.10;99.90;;;;;;5073926;28;20085;-62
2022/12/21 15:35:28;;;;;;;17.40;7.68;;;9.10;99.90;;;;;;5072452;28;20024;-62
2022/12/21 15:37:56;;;;;;;17.67;8.43;;;9.10;99.90;;;;;;5071320;28;20364;-63
2022/12/21 15:40:30;;;;;;;15.82;8.02;;;9.10;99.90;;;;;;5072466;28;20020;-62
2022/12/21 15:43:22;;;;;;;12.45;7.93;;;9.10;99.90;;;;;;5072300;28;20021;-63
2022/12/21 15:46:12;;;;;;;13.63;7.93;;;9.00;99.90;;;;;;5072116;28;20065;-63
2022/12/21 15:49:10;;;;;;;18.63;7.18;;;9.00;99.90;;;;;;5073825;28;20033;-62
2022/12/21 15:51:41;;;;;;;12.13;7.75;;;9.00;99.90;;;;;;5079943;28;20024;-62
2022/12/21 15:54:21;;;;;;;16.98;8.90;;;8.80;99.90;;;;;;5078284;28;20485;-62
2022/12/21 15:57:04;;;;;;;21.90;11.38;;;8.70;99.90;;;;;;5071550;28;20028;-63
2022/12/21 15:59:39;;;;;;;23.67;12.55;;;8.70;99.90;;;;;;5071568;28;20020;-61
2022/12/21 16:02:17;;;;;;;20.05;11.00;;;8.70;99.90;;;;;;5073797;28;20032;-63
2022/12/21 16:04:45;;;;;;;21.80;11.00;;;8.70;99.90;;;;;;5072529;28;20451;-63
2022/12/21 16:07:13;;;;;;;20.05;10.50;;;8.60;99.90;;;;;;5071087;28;20478;-62
2022/12/21 16:09:40;;;;;;;17.25;9.55;;;8.60;99.90;;;;;;5069936;28;20543;-62
2022/12/21 16:12:20;;;;;;;15.15;8.30;;;8.60;99.90;;;;;;5077246;28;20147;-62
2022/12/21 16:14:46;;;;;;;17.90;9.25;;;8.60;99.90;;;;;;5071254;28;20044;-62
2022/12/21 16:17:22;;;;;;;27.15;9.98;;;8.50;99.90;;;;;;5072234;28;20017;-62
2022/12/21 16:19:51;;;;;;;19.77;10.23;;;8.50;99.90;;;;;;5077500;28;20389;-61
2022/12/21 16:22:17;;;;;;;21.73;10.65;;;8.50;99.90;;;;;;5087861;28;20173;-63
2022/12/21 16:24:45;;;;;;;18.30;10.45;;;8.60;99.90;;;;;;5111629;28;20023;-64
2022/12/21 16:27:17;;;;;;;14.75;8.52;;;8.60;99.90;;;;;;5099491;28;20066;-63
2022/12/21 16:29:47;;;;;;;19.02;9.93;;;8.60;99.90;;;;;;5087301;28;20021;-63
2022/12/21 16:32:15;;;;;;;17.40;9.70;;;8.60;99.90;;;;;;5069976;28;20119;-61
2022/12/21 16:34:46;;;;;;;17.15;10.50;;;8.70;99.90;;;;;;5071908;28;20012;-61
2022/12/21 16:37:25;;;;;;;16.60;9.17;;;8.70;99.90;;;;;;5070003;28;20415;-62
2022/12/21 16:39:50;;;;;;;20.38;8.38;;;8.70;99.90;;;;;;5082985;28;20383;-61
2022/12/21 16:42:16;;;;;;;19.92;8.32;;;8.70;99.90;;;;;;5112044;28;20024;-62
2022/12/21 16:44:45;;;;;;;22.35;10.73;;;8.70;99.90;;;;;;5111856;28;20051;-61
2022/12/21 16:47:13;;;;;;;15.45;9.40;;;8.70;99.90;;;;;;5111031;28;20023;-61
2022/12/21 16:49:40;;;;;;;17.33;11.43;;;8.70;99.90;;;;;;5106362;28;20433;-60
2022/12/21 16:52:40;;;;;;;23.20;11.40;;;8.70;99.90;;;;;;5071023;28;20029;-60
2022/12/21 16:55:26;;;;;;;24.55;12.95;;;8.70;99.90;;;;;;5070287;28;20366;-62
2022/12/21 16:57:56;;;;;;;23.25;13.65;;;8.70;99.90;;;;;;5070885;28;20119;-62
2022/12/21 17:00:29;;;;;;;23.02;13.75;;;8.70;99.90;;;;;;5073569;28;20012;-63
2022/12/21 17:03:01;;;;;;;18.85;11.30;;;8.70;99.90;;;;;;5078063;28;20204;-63
2022/12/21 17:05:34;;;;;;;20.92;11.00;;;8.70;99.90;;;;;;5070604;28;20040;-63
2022/12/21 17:08:10;;;;;;;18.65;11.63;;;8.70;99.90;;;;;;5068462;28;20116;-62
2022/12/21 17:10:36;;;;;;;19.77;11.95;;;8.60;99.90;;;;;;5070534;28;20114;-62
2022/12/21 17:13:06;;;;;;;23.55;15.25;;;8.60;99.90;;;;;;5071089;28;20025;-63
2022/12/21 17:15:43;;;;;;;21.85;12.18;;;8.60;99.90;;;;;;5086853;28;20074;-65
2022/12/21 17:18:36;;;;;;;25.73;13.52;;;8.70;99.90;;;;;;5080064;28;20487;-68
2022/12/21 17:21:23;;;;;;;21.08;12.57;;;8.60;99.90;;;;;;5087411;28;20024;-65
2022/12/21 17:24:31;;;;;;;20.65;11.73;;;8.60;99.90;;;;;;5090500;28;20043;-63
2022/12/21 17:27:00;;;;;;;20.83;10.98;;;8.60;99.90;;;;;;5052966;28;20040;-63
2022/12/21 17:29:26;;;;;;;16.98;10.02;;;8.60;99.90;;;;;;5070248;28;20067;-63
2022/12/21 17:31:51;;;;;;;18.30;10.80;;;8.60;99.90;;;;;;5071634;28;20481;-63
2022/12/21 17:34:21;;;;;;;17.55;10.38;;;8.60;99.90;;;;;;5071026;28;20029;-63
2022/12/21 17:36:47;;;;;;;22.10;11.05;;;8.60;99.90;;;;;;5071000;28;20120;-64
2022/12/21 17:39:18;;;;;;;19.15;10.07;;;8.60;99.90;;;;;;5069865;28;20120;-63
2022/12/21 17:41:45;;;;;;;18.00;10.55;;;8.60;99.90;;;;;;5070604;28;20028;-62
2022/12/21 17:44:11;;;;;;;23.23;11.68;;;8.60;99.90;;;;;;5071952;28;20059;-64
2022/12/21 17:46:38;;;;;;;20.77;11.63;;;8.60;99.90;;;;;;5070307;28;20071;-63
2022/12/21 17:49:04;;;;;;;26.85;14.55;;;8.60;99.90;;;;;;5070109;28;20162;-62
2022/12/21 17:51:30;;;;;;;18.40;10.35;;;8.60;99.90;;;;;;5089429;28;20020;-61
2022/12/21 17:53:56;;;;;;;17.92;10.68;;;8.60;99.90;;;;;;5091304;28;20024;-62
2022/12/21 17:56:23;;;;;;;21.73;10.65;;;8.60;99.90;;;;;;5089091;28;20028;-63
2022/12/21 17:58:50;;;;;;;23.50;11.13;;;8.60;99.90;;;;;;5078854;28;20470;-62
2022/12/21 18:01:20;;;;;;;21.65;10.23;;;8.60;99.90;;;;;;5079832;28;20330;-66
2022/12/21 18:03:46;;;;;;;19.15;9.85;;;8.60;99.90;;;;;;5070355;28;20027;-65
2022/12/21 18:06:14;;;;;;;19.58;10.20;;;8.70;99.90;;;;;;5086754;28;20041;-66
2022/12/21 18:08:40;;;;;;;18.20;10.57;;;8.70;99.90;;;;;;5071015;28;20024;-63
2022/12/21 18:11:06;;;;;;;16.98;9.27;;;8.70;99.90;;;;;;5072230;28;20085;-64
2022/12/21 18:13:32;;;;;;;16.55;8.32;;;8.70;99.90;;;;;;5069379;28;20379;-64
2022/12/21 18:16:01;;;;;;;15.80;9.15;;;8.70;99.90;;;;;;5070851;28;20025;-65
2022/12/21 18:18:30;;;;;;;19.63;9.98;;;8.70;99.90;;;;;;5085845;28;20032;-63
2022/12/21 18:20:56;;;;;;;22.23;10.82;;;8.70;99.90;;;;;;5069499;28;20435;-64
2022/12/21 18:23:26;;;;;;;19.48;9.57;;;8.70;99.90;;;;;;5069636;28;20031;-60
2022/12/21 18:25:53;;;;;;;21.25;9.80;;;8.70;99.90;;;;;;5073998;28;20123;-63
2022/12/21 18:28:21;;;;;;;16.67;9.43;;;8.70;99.90;;;;;;5077949;28;20567;-64
2022/12/21 18:30:56;;;;;;;16.15;8.05;;;8.70;99.90;;;;;;5087903;28;20635;-60
2022/12/21 18:33:23;;;;;;;18.55;9.40;;;8.80;99.90;;;;;;5092865;28;20054;-63
2022/12/21 18:35:48;;;;;;;16.85;9.15;;;8.70;99.90;;;;;;5092852;28;20070;-62
2022/12/21 18:38:24;;;;;;;17.85;9.20;;;8.80;99.90;;;;;;5089217;28;20016;-60
2022/12/21 18:40:49;;;;;;;16.40;8.65;;;8.70;99.90;;;;;;5089949;28;20056;-59
2022/12/21 18:43:21;;;;;;;13.70;7.93;;;8.70;99.90;;;;;;5093074;28;20507;-60
2022/12/21 18:45:46;;;;;;;;;;;8.70;99.90;;;;;;5093092;28;20072;-60
2022/12/21 18:48:15;;;;;;;17.23;9.32;;;8.80;99.90;;;;;;5093607;28;19911;-59
2022/12/21 18:50:40;;;;;;;17.27;10.13;;;8.80;99.90;;;;;;5092715;28;20116;-61
2022/12/21 18:53:13;;;;;;;17.30;10.05;;;8.80;99.90;;;;;;5093333;28;20087;-59
2022/12/21 18:55:39;;;;;;;16.60;10.60;;;8.80;99.90;;;;;;5094091;28;20032;-59
2022/12/21 18:58:04;;;;;;;17.17;10.35;;;8.80;99.90;;;;;;5093581;28;20472;-60
2022/12/21 19:00:30;;;;;;;16.15;10.07;;;8.80;99.90;;;;;;5091788;28;20089;-61
2022/12/21 19:02:56;;;;;;;22.25;11.25;;;8.80;99.90;;;;;;5094076;28;20031;-60
2022/12/21 19:05:26;;;;;;;15.68;10.02;;;8.80;99.90;;;;;;5093783;28;20090;-60
2022/12/21 19:07:54;;;;;;;18.05;9.80;;;8.80;99.90;;;;;;5091170;28;20019;-60
2022/12/21 19:10:24;;;;;;;20.35;10.95;;;8.80;99.90;;;;;;5093632;28;20035;-60
2022/12/21 19:12:50;;;;;;;20.33;13.20;;;8.90;99.90;;;;;;5090767;28;20027;-61
2022/12/21 19:15:16;;;;;;;22.38;13.65;;;8.90;99.90;;;;;;5092641;28;20016;-61
2022/12/21 19:17:42;;;;;;;21.90;12.68;;;8.90;99.90;;;;;;5098788;28;20206;-60
2022/12/21 19:20:29;;;;;;;26.67;14.85;;;8.90;99.90;;;;;;5092725;28;20044;-60
2022/12/21 19:22:55;;;;;;;25.95;16.77;;;8.90;99.90;;;;;;5080276;28;20389;-60
2022/12/21 19:25:23;;;;;;;26.85;17.52;;;8.90;99.90;;;;;;5072755;28;20040;-60
2022/12/21 19:27:49;;;;;;;21.90;14.90;;;8.90;99.90;;;;;;5072529;28;20488;-60
2022/12/21 19:30:26;;;;;;;22.95;13.90;;;8.90;99.90;;;;;;5072958;28;20089;-61
2022/12/21 19:32:53;;;;;;;25.88;17.52;;;9.00;99.90;;;;;;5073551;28;20059;-60
2022/12/21 19:35:18;;;;;;;23.63;16.45;;;9.00;99.90;;;;;;5074249;28;20123;-62
2022/12/21 19:37:47;;;;;;;23.45;14.98;;;9.00;99.90;;;;;;5081957;28;20484;-61
2022/12/21 19:40:32;;;;;;;25.73;15.85;;;8.90;99.90;;;;;;5072748;28;20032;-60
2022/12/21 19:42:59;;;;;;;24.08;16.10;;;9.00;99.90;;;;;;5071838;28;20029;-60
2022/12/21 19:45:26;;;;;;;25.20;15.85;;;8.90;99.90;;;;;;5072494;28;20055;-60
2022/12/21 19:47:51;;;;;;;23.83;14.82;;;9.00;99.90;;;;;;5074222;28;20090;-60
2022/12/21 19:50:21;;;;;;;31.42;17.75;;;9.00;99.90;;;;;;5072303;28;20032;-60
2022/12/21 19:52:47;;;;;;;34.22;20.92;;;9.00;99.90;;;;;;5072202;28;20061;-59
2022/12/21 19:55:19;;;;;;;32.10;20.10;;;9.00;99.90;;;;;;5073335;28;20024;-60
2022/12/21 19:57:55;;;;;;;27.20;19.15;;;9.00;99.90;;;;;;5072624;28;20201;-61
